Sunday, August 19, 2018, 12:29 AM GMT
Back to Local

CWXC, Onatchiway, Que.

Location: , , Canada Lat: 48.883
Local Time: 12:29 AM GMT ( 0:29 GMT) Lon: -71.033
Time Zone: GMT Elev: 997 ft

Show me the last for .
Show Coded

Time T Td Feel RH Dir Speed Gust Alt SLP Vis Weather Sky Remarks
2018-08-19 00:00 58 46 - 62 120° 2 - - 29.98 0 None
2018-08-18 23:00 69 39 - 32 340° 5 - - 29.96 0 None
2018-08-18 22:00 73 41 - 32 350° 7 - - 29.94 0 None
2018-08-18 21:00 74 46 - 36 350° 6 - - 29.93 0 None
2018-08-18 20:00 73 46 - 36 360° 6 - - 29.94 0 None
2018-08-18 19:00 73 50 76 44 350° 8 - - 29.94 0 None
2018-08-18 18:00 73 51 76 47 350° 7 - - 29.93 0 None
2018-08-18 17:00 71 53 76 52 350° 7 - - 29.93 0 None
2018-08-18 16:00 71 54 76 56 350° 7 - - 29.93 0 None
2018-08-18 15:00 67 56 - 66 360° 6 - - 29.94 0 None
2018-08-18 14:00 65 57 - 75 350° 6 - - 29.94 0 None
2018-08-18 13:00 62 58 - 87 360° 5 - - 29.94 0 None
2018-08-18 12:00 58 58 - 100 20° 2 - - 29.94 0 None
2018-08-18 11:00 52 - - 0 50° 1 - - 29.94 0 None
2018-08-18 10:00 50 50 - 100 80° 1 - - 29.93 0 None
2018-08-18 09:00 49 49 - 100 110° 1 - - 29.92 0 None
2018-08-18 08:00 49 49 - 100 150° 1 - - 29.92 0 None
2018-08-18 07:00 50 50 - 100 140° 1 - - 29.91 0 None
2018-08-18 06:00 51 51 - 100 160° 2 - - 29.91 0 None
2018-08-18 05:00 52 52 - 100 120° 2 - - 29.92 0 None
2018-08-18 04:00 54 54 - 100 170° 1 - - 29.92 0 None
2018-08-18 03:00 56 56 - 100 140° 2 - - 29.93 0 None
2018-08-18 02:00 59 58 - 95 180° 2 - - 29.94 0 None
2018-08-18 01:00 60 58 - 94 160° 1 - - 29.94 0 None

Support USWX by starting your Amazon purchase here.